sensor_id;sensor_type;location;lat;lon;timestamp;P1;durP1;ratioP1;P2;durP2;ratioP2
14143;SDS011;7152;48.348;10.980;2023-07-28T00:01:20;4.20;;;3.90;;
14143;SDS011;7152;48.348;10.980;2023-07-28T00:04:38;5.00;;;4.03;;
14143;SDS011;7152;48.348;10.980;2023-07-28T00:07:09;5.03;;;4.63;;
14143;SDS011;7152;48.348;10.980;2023-07-28T00:10:23;4.10;;;3.70;;
14143;SDS011;7152;48.348;10.980;2023-07-28T00:12:59;3.80;;;3.50;;
14143;SDS011;7152;48.348;10.980;2023-07-28T00:15:38;3.63;;;3.33;;
14143;SDS011;7152;48.348;10.980;2023-07-28T00:18:31;4.60;;;3.97;;
14143;SDS011;7152;48.348;10.980;2023-07-28T00:21:38;4.43;;;3.80;;
14143;SDS011;7152;48.348;10.980;2023-07-28T00:24:54;4.90;;;3.60;;
14143;SDS011;7152;48.348;10.980;2023-07-28T00:31:36;4.70;;;3.87;;
14143;SDS011;7152;48.348;10.980;2023-07-28T00:38:40;4.73;;;3.87;;
14143;SDS011;7152;48.348;10.980;2023-07-28T00:41:29;6.07;;;3.80;;
14143;SDS011;7152;48.348;10.980;2023-07-28T00:44:06;4.20;;;3.83;;
14143;SDS011;7152;48.348;10.980;2023-07-28T00:46:33;4.23;;;3.83;;
14143;SDS011;7152;48.348;10.980;2023-07-28T00:48:59;5.57;;;3.93;;
14143;SDS011;7152;48.348;10.980;2023-07-28T00:51:26;4.10;;;3.70;;
14143;SDS011;7152;48.348;10.980;2023-07-28T00:53:52;4.63;;;4.10;;
14143;SDS011;7152;48.348;10.980;2023-07-28T00:56:25;4.90;;;4.10;;
14143;SDS011;7152;48.348;10.980;2023-07-28T01:02:57;5.67;;;4.47;;
14143;SDS011;7152;48.348;10.980;2023-07-28T01:13:27;5.37;;;4.23;;
14143;SDS011;7152;48.348;10.980;2023-07-28T01:27:40;4.67;;;4.23;;
14143;SDS011;7152;48.348;10.980;2023-07-28T01:30:41;4.40;;;4.10;;
14143;SDS011;7152;48.348;10.980;2023-07-28T01:33:16;5.93;;;4.23;;
14143;SDS011;7152;48.348;10.980;2023-07-28T01:35:57;6.00;;;3.97;;
14143;SDS011;7152;48.348;10.980;2023-07-28T01:38:29;4.93;;;4.30;;
14143;SDS011;7152;48.348;10.980;2023-07-28T01:41:06;5.40;;;3.73;;
14143;SDS011;7152;48.348;10.980;2023-07-28T01:43:37;5.10;;;4.60;;
14143;SDS011;7152;48.348;10.980;2023-07-28T01:46:32;4.27;;;3.80;;
14143;SDS011;7152;48.348;10.980;2023-07-28T01:49:22;4.53;;;4.13;;
14143;SDS011;7152;48.348;10.980;2023-07-28T01:51:57;4.97;;;4.00;;
14143;SDS011;7152;48.348;10.980;2023-07-28T01:54:50;4.20;;;3.80;;
14143;SDS011;7152;48.348;10.980;2023-07-28T01:57:24;4.40;;;4.00;;
14143;SDS011;7152;48.348;10.980;2023-07-28T02:00:10;4.97;;;4.53;;
14143;SDS011;7152;48.348;10.980;2023-07-28T02:02:39;5.13;;;4.43;;
14143;SDS011;7152;48.348;10.980;2023-07-28T02:05:25;4.23;;;3.83;;
14143;SDS011;7152;48.348;10.980;2023-07-28T02:08:26;5.67;;;4.30;;
14143;SDS011;7152;48.348;10.980;2023-07-28T02:11:05;4.17;;;3.77;;
14143;SDS011;7152;48.348;10.980;2023-07-28T02:14:14;4.70;;;4.30;;
14143;SDS011;7152;48.348;10.980;2023-07-28T02:16:55;4.80;;;4.40;;
14143;SDS011;7152;48.348;10.980;2023-07-28T02:19:51;3.80;;;3.50;;
14143;SDS011;7152;48.348;10.980;2023-07-28T02:22:20;4.50;;;4.10;;
14143;SDS011;7152;48.348;10.980;2023-07-28T02:25:13;4.10;;;3.67;;
14143;SDS011;7152;48.348;10.980;2023-07-28T02:27:57;3.50;;;3.20;;
14143;SDS011;7152;48.348;10.980;2023-07-28T02:30:31;5.03;;;3.90;;
14143;SDS011;7152;48.348;10.980;2023-07-28T02:33:57;4.70;;;4.30;;
14143;SDS011;7152;48.348;10.980;2023-07-28T02:37:01;4.23;;;3.83;;
14143;SDS011;7152;48.348;10.980;2023-07-28T02:39:44;4.23;;;3.23;;
14143;SDS011;7152;48.348;10.980;2023-07-28T02:42:15;5.13;;;3.77;;
14143;SDS011;7152;48.348;10.980;2023-07-28T02:45:36;5.77;;;3.57;;
14143;SDS011;7152;48.348;10.980;2023-07-28T02:49:12;3.67;;;3.10;;
14143;SDS011;7152;48.348;10.980;2023-07-28T02:52:36;3.83;;;3.50;;
14143;SDS011;7152;48.348;10.980;2023-07-28T02:55:20;3.27;;;2.97;;
14143;SDS011;7152;48.348;10.980;2023-07-28T02:58:10;3.83;;;3.43;;
14143;SDS011;7152;48.348;10.980;2023-07-28T03:04:09;5.03;;;3.70;;
14143;SDS011;7152;48.348;10.980;2023-07-28T03:07:17;3.73;;;3.40;;
14143;SDS011;7152;48.348;10.980;2023-07-28T03:10:28;4.77;;;3.37;;
14143;SDS011;7152;48.348;10.980;2023-07-28T03:12:56;4.47;;;3.20;;
14143;SDS011;7152;48.348;10.980;2023-07-28T03:15:27;3.63;;;3.33;;
14143;SDS011;7152;48.348;10.980;2023-07-28T03:18:00;5.07;;;3.90;;
14143;SDS011;7152;48.348;10.980;2023-07-28T03:21:11;4.67;;;3.43;;
14143;SDS011;7152;48.348;10.980;2023-07-28T03:24:04;4.47;;;3.40;;
14143;SDS011;7152;48.348;10.980;2023-07-28T03:36:01;3.70;;;3.30;;
14143;SDS011;7152;48.348;10.980;2023-07-28T03:39:14;4.43;;;3.87;;
14143;SDS011;7152;48.348;10.980;2023-07-28T03:41:54;4.07;;;3.67;;
14143;SDS011;7152;48.348;10.980;2023-07-28T03:45:22;3.97;;;3.67;;
14143;SDS011;7152;48.348;10.980;2023-07-28T03:48:18;4.10;;;3.70;;
14143;SDS011;7152;48.348;10.980;2023-07-28T03:51:20;4.70;;;4.30;;
14143;SDS011;7152;48.348;10.980;2023-07-28T03:54:38;4.20;;;3.90;;
14143;SDS011;7152;48.348;10.980;2023-07-28T04:00:13;4.47;;;3.83;;
14143;SDS011;7152;48.348;10.980;2023-07-28T04:03:12;4.67;;;4.23;;
14143;SDS011;7152;48.348;10.980;2023-07-28T04:06:05;3.93;;;3.53;;
14143;SDS011;7152;48.348;10.980;2023-07-28T04:08:57;4.13;;;3.73;;
14143;SDS011;7152;48.348;10.980;2023-07-28T04:15:34;4.27;;;3.77;;
14143;SDS011;7152;48.348;10.980;2023-07-28T04:18:54;5.70;;;4.17;;
14143;SDS011;7152;48.348;10.980;2023-07-28T04:22:25;3.90;;;3.50;;
14143;SDS011;7152;48.348;10.980;2023-07-28T04:26:31;5.93;;;4.20;;
14143;SDS011;7152;48.348;10.980;2023-07-28T04:29:26;4.47;;;3.80;;
14143;SDS011;7152;48.348;10.980;2023-07-28T04:31:58;5.20;;;4.37;;
14143;SDS011;7152;48.348;10.980;2023-07-28T04:34:49;4.07;;;3.67;;
14143;SDS011;7152;48.348;10.980;2023-07-28T04:37:33;4.03;;;3.73;;
14143;SDS011;7152;48.348;10.980;2023-07-28T04:40:33;4.23;;;3.90;;
14143;SDS011;7152;48.348;10.980;2023-07-28T04:44:17;4.13;;;3.73;;
14143;SDS011;7152;48.348;10.980;2023-07-28T04:47:56;4.17;;;3.77;;
14143;SDS011;7152;48.348;10.980;2023-07-28T04:55:36;3.97;;;3.67;;
14143;SDS011;7152;48.348;10.980;2023-07-28T04:58:42;4.37;;;3.97;;
14143;SDS011;7152;48.348;10.980;2023-07-28T05:01:22;4.27;;;3.87;;
14143;SDS011;7152;48.348;10.980;2023-07-28T05:15:00;3.97;;;3.60;;
14143;SDS011;7152;48.348;10.980;2023-07-28T05:17:46;4.00;;;3.43;;
14143;SDS011;7152;48.348;10.980;2023-07-28T05:25:26;6.10;;;4.37;;
14143;SDS011;7152;48.348;10.980;2023-07-28T05:28:16;5.50;;;4.50;;
14143;SDS011;7152;48.348;10.980;2023-07-28T05:31:18;4.37;;;3.77;;
14143;SDS011;7152;48.348;10.980;2023-07-28T05:34:00;3.97;;;3.57;;
14143;SDS011;7152;48.348;10.980;2023-07-28T05:36:31;4.50;;;4.10;;
14143;SDS011;7152;48.348;10.980;2023-07-28T05:39:08;5.67;;;4.30;;
14143;SDS011;7152;48.348;10.980;2023-07-28T05:41:49;5.07;;;3.87;;
14143;SDS011;7152;48.348;10.980;2023-07-28T05:44:26;4.10;;;3.77;;
14143;SDS011;7152;48.348;10.980;2023-07-28T05:47:19;3.50;;;3.20;;
14143;SDS011;7152;48.348;10.980;2023-07-28T05:50:03;4.80;;;3.70;;
14143;SDS011;7152;48.348;10.980;2023-07-28T05:52:43;4.00;;;3.60;;
14143;SDS011;7152;48.348;10.980;2023-07-28T06:03:34;4.23;;;3.60;;
14143;SDS011;7152;48.348;10.980;2023-07-28T06:07:14;3.93;;;3.50;;
14143;SDS011;7152;48.348;10.980;2023-07-28T06:10:39;5.00;;;3.10;;
14143;SDS011;7152;48.348;10.980;2023-07-28T06:13:28;3.40;;;2.93;;
14143;SDS011;7152;48.348;10.980;2023-07-28T06:16:33;4.53;;;3.57;;
14143;SDS011;7152;48.348;10.980;2023-07-28T06:23:31;3.73;;;3.37;;
14143;SDS011;7152;48.348;10.980;2023-07-28T06:26:29;3.67;;;3.37;;
14143;SDS011;7152;48.348;10.980;2023-07-28T06:33:49;4.03;;;3.63;;
14143;SDS011;7152;48.348;10.980;2023-07-28T06:36:34;3.47;;;2.93;;
14143;SDS011;7152;48.348;10.980;2023-07-28T06:39:06;3.50;;;3.07;;
14143;SDS011;7152;48.348;10.980;2023-07-28T06:42:07;3.23;;;2.80;;
14143;SDS011;7152;48.348;10.980;2023-07-28T06:45:29;2.97;;;2.70;;
14143;SDS011;7152;48.348;10.980;2023-07-28T06:48:10;4.37;;;3.03;;
14143;SDS011;7152;48.348;10.980;2023-07-28T06:51:48;3.80;;;2.93;;
14143;SDS011;7152;48.348;10.980;2023-07-28T06:54:48;3.77;;;2.83;;
14143;SDS011;7152;48.348;10.980;2023-07-28T06:57:45;3.13;;;2.80;;
14143;SDS011;7152;48.348;10.980;2023-07-28T07:00:27;3.00;;;2.80;;
14143;SDS011;7152;48.348;10.980;2023-07-28T07:03:05;2.70;;;2.50;;
14143;SDS011;7152;48.348;10.980;2023-07-28T07:06:18;7.67;;;2.90;;
14143;SDS011;7152;48.348;10.980;2023-07-28T07:08:56;3.23;;;2.93;;
14143;SDS011;7152;48.348;10.980;2023-07-28T07:12:04;2.97;;;2.67;;
14143;SDS011;7152;48.348;10.980;2023-07-28T07:15:02;2.70;;;2.50;;
14143;SDS011;7152;48.348;10.980;2023-07-28T07:17:54;3.70;;;2.53;;
14143;SDS011;7152;48.348;10.980;2023-07-28T07:23:33;2.90;;;2.60;;
14143;SDS011;7152;48.348;10.980;2023-07-28T07:26:54;2.73;;;2.53;;
14143;SDS011;7152;48.348;10.980;2023-07-28T07:37:56;2.30;;;2.10;;
14143;SDS011;7152;48.348;10.980;2023-07-28T07:40:43;3.40;;;2.50;;
14143;SDS011;7152;48.348;10.980;2023-07-28T07:43:21;2.53;;;2.00;;
14143;SDS011;7152;48.348;10.980;2023-07-28T07:46:24;3.47;;;2.50;;
14143;SDS011;7152;48.348;10.980;2023-07-28T07:49:01;4.10;;;2.37;;
14143;SDS011;7152;48.348;10.980;2023-07-28T07:52:30;2.17;;;2.07;;
14143;SDS011;7152;48.348;10.980;2023-07-28T07:55:50;2.77;;;2.57;;
14143;SDS011;7152;48.348;10.980;2023-07-28T07:58:45;2.87;;;2.60;;
14143;SDS011;7152;48.348;10.980;2023-07-28T08:01:14;2.40;;;2.20;;
14143;SDS011;7152;48.348;10.980;2023-07-28T08:04:02;3.10;;;2.23;;
14143;SDS011;7152;48.348;10.980;2023-07-28T08:06:48;2.53;;;2.20;;
14143;SDS011;7152;48.348;10.980;2023-07-28T08:09:50;2.63;;;2.00;;
14143;SDS011;7152;48.348;10.980;2023-07-28T08:12:52;3.47;;;2.10;;
14143;SDS011;7152;48.348;10.980;2023-07-28T08:15:54;2.67;;;2.03;;
14143;SDS011;7152;48.348;10.980;2023-07-28T08:23:31;2.50;;;2.10;;
14143;SDS011;7152;48.348;10.980;2023-07-28T08:26:21;2.30;;;1.90;;
14143;SDS011;7152;48.348;10.980;2023-07-28T08:29:28;3.77;;;2.30;;
14143;SDS011;7152;48.348;10.980;2023-07-28T08:39:30;2.47;;;2.13;;
14143;SDS011;7152;48.348;10.980;2023-07-28T08:42:28;4.30;;;2.00;;
14143;SDS011;7152;48.348;10.980;2023-07-28T08:45:19;2.53;;;2.10;;
14143;SDS011;7152;48.348;10.980;2023-07-28T08:48:33;2.77;;;2.10;;
14143;SDS011;7152;48.348;10.980;2023-07-28T08:51:25;2.50;;;2.30;;
14143;SDS011;7152;48.348;10.980;2023-07-28T08:54:35;2.53;;;2.10;;
14143;SDS011;7152;48.348;10.980;2023-07-28T08:57:46;4.37;;;1.90;;
14143;SDS011;7152;48.348;10.980;2023-07-28T09:00:29;3.17;;;2.40;;
14143;SDS011;7152;48.348;10.980;2023-07-28T09:03:10;3.40;;;2.07;;
14143;SDS011;7152;48.348;10.980;2023-07-28T09:06:10;2.50;;;2.30;;
14143;SDS011;7152;48.348;10.980;2023-07-28T09:09:22;2.27;;;2.00;;
14143;SDS011;7152;48.348;10.980;2023-07-28T09:12:02;2.40;;;2.13;;
14143;SDS011;7152;48.348;10.980;2023-07-28T09:14:37;1.90;;;1.80;;
14143;SDS011;7152;48.348;10.980;2023-07-28T09:17:24;2.43;;;2.10;;
14143;SDS011;7152;48.348;10.980;2023-07-28T09:20:18;2.85;;;1.95;;
14143;SDS011;7152;48.348;10.980;2023-07-28T09:23:26;2.10;;;1.90;;
14143;SDS011;7152;48.348;10.980;2023-07-28T09:26:47;2.47;;;2.28;;
14143;SDS011;7152;48.348;10.980;2023-07-28T09:29:26;2.20;;;1.98;;
14143;SDS011;7152;48.348;10.980;2023-07-28T09:32:30;3.03;;;2.20;;
14143;SDS011;7152;48.348;10.980;2023-07-28T09:35:05;2.25;;;2.05;;
14143;SDS011;7152;48.348;10.980;2023-07-28T09:37:44;2.15;;;2.05;;
14143;SDS011;7152;48.348;10.980;2023-07-28T09:40:34;2.58;;;2.38;;
14143;SDS011;7152;48.348;10.980;2023-07-28T09:43:11;2.60;;;2.20;;
14143;SDS011;7152;48.348;10.980;2023-07-28T09:46:04;3.17;;;2.23;;
14143;SDS011;7152;48.348;10.980;2023-07-28T09:49:12;2.38;;;2.17;;
14143;SDS011;7152;48.348;10.980;2023-07-28T09:52:39;2.77;;;2.10;;
14143;SDS011;7152;48.348;10.980;2023-07-28T09:55:28;2.60;;;2.03;;
14143;SDS011;7152;48.348;10.980;2023-07-28T09:58:12;3.23;;;2.10;;
14143;SDS011;7152;48.348;10.980;2023-07-28T10:01:15;2.30;;;2.10;;
14143;SDS011;7152;48.348;10.980;2023-07-28T10:04:19;3.63;;;2.20;;
14143;SDS011;7152;48.348;10.980;2023-07-28T10:06:58;4.43;;;2.40;;
14143;SDS011;7152;48.348;10.980;2023-07-28T10:10:17;2.17;;;1.87;;
14143;SDS011;7152;48.348;10.980;2023-07-28T10:13:00;2.13;;;2.03;;
14143;SDS011;7152;48.348;10.980;2023-07-28T10:15:34;2.10;;;1.90;;
14143;SDS011;7152;48.348;10.980;2023-07-28T10:18:14;3.03;;;2.37;;
14143;SDS011;7152;48.348;10.980;2023-07-28T10:21:50;2.83;;;2.40;;
14143;SDS011;7152;48.348;10.980;2023-07-28T10:25:25;2.70;;;2.50;;
14143;SDS011;7152;48.348;10.980;2023-07-28T10:28:42;3.03;;;2.20;;
14143;SDS011;7152;48.348;10.980;2023-07-28T10:31:32;2.37;;;2.17;;
14143;SDS011;7152;48.348;10.980;2023-07-28T10:34:31;3.20;;;2.50;;
14143;SDS011;7152;48.348;10.980;2023-07-28T10:37:34;2.97;;;1.90;;
14143;SDS011;7152;48.348;10.980;2023-07-28T10:43:36;3.17;;;2.50;;
14143;SDS011;7152;48.348;10.980;2023-07-28T10:46:43;2.80;;;2.00;;
14143;SDS011;7152;48.348;10.980;2023-07-28T10:49:18;2.70;;;2.13;;
14143;SDS011;7152;48.348;10.980;2023-07-28T10:55:21;3.37;;;2.53;;
14143;SDS011;7152;48.348;10.980;2023-07-28T10:57:59;3.17;;;2.30;;
14143;SDS011;7152;48.348;10.980;2023-07-28T11:01:00;2.53;;;2.07;;
14143;SDS011;7152;48.348;10.980;2023-07-28T11:03:42;2.37;;;2.17;;
14143;SDS011;7152;48.348;10.980;2023-07-28T11:06:21;3.00;;;2.30;;
14143;SDS011;7152;48.348;10.980;2023-07-28T11:09:25;2.23;;;2.03;;
14143;SDS011;7152;48.348;10.980;2023-07-28T11:12:02;4.07;;;2.67;;
14143;SDS011;7152;48.348;10.980;2023-07-28T11:15:21;2.47;;;2.27;;
14143;SDS011;7152;48.348;10.980;2023-07-28T11:18:02;2.20;;;2.00;;
14143;SDS011;7152;48.348;10.980;2023-07-28T11:24:55;2.50;;;2.30;;
14143;SDS011;7152;48.348;10.980;2023-07-28T11:28:32;3.50;;;2.60;;
14143;SDS011;7152;48.348;10.980;2023-07-28T11:31:45;2.53;;;2.33;;
14143;SDS011;7152;48.348;10.980;2023-07-28T11:35:23;2.15;;;1.95;;
14143;SDS011;7152;48.348;10.980;2023-07-28T11:38:14;2.38;;;2.17;;
14143;SDS011;7152;48.348;10.980;2023-07-28T11:40:49;2.47;;;2.28;;
14143;SDS011;7152;48.348;10.980;2023-07-28T11:43:36;3.55;;;2.35;;
14143;SDS011;7152;48.348;10.980;2023-07-28T11:49:34;3.25;;;2.17;;
14143;SDS011;7152;48.348;10.980;2023-07-28T11:52:21;2.50;;;2.22;;
14143;SDS011;7152;48.348;10.980;2023-07-28T11:55:09;2.97;;;2.38;;
14143;SDS011;7152;48.348;10.980;2023-07-28T11:57:48;2.45;;;2.30;;
14143;SDS011;7152;48.348;10.980;2023-07-28T12:01:25;3.03;;;2.25;;
14143;SDS011;7152;48.348;10.980;2023-07-28T12:03:59;2.85;;;2.20;;
14143;SDS011;7152;48.348;10.980;2023-07-28T12:09:51;2.20;;;2.00;;
14143;SDS011;7152;48.348;10.980;2023-07-28T12:12:20;2.28;;;2.08;;
14143;SDS011;7152;48.348;10.980;2023-07-28T12:15:26;2.25;;;1.90;;
14143;SDS011;7152;48.348;10.980;2023-07-28T12:18:30;2.72;;;2.20;;
14143;SDS011;7152;48.348;10.980;2023-07-28T12:21:22;2.65;;;2.20;;
14143;SDS011;7152;48.348;10.980;2023-07-28T12:24:05;3.47;;;2.05;;
14143;SDS011;7152;48.348;10.980;2023-07-28T12:26:31;2.55;;;2.35;;
14143;SDS011;7152;48.348;10.980;2023-07-28T12:28:57;2.38;;;2.20;;
14143;SDS011;7152;48.348;10.980;2023-07-28T12:31:23;3.90;;;2.25;;
14143;SDS011;7152;48.348;10.980;2023-07-28T12:33:48;3.00;;;2.40;;
14143;SDS011;7152;48.348;10.980;2023-07-28T12:36:30;2.38;;;2.17;;
14143;SDS011;7152;48.348;10.980;2023-07-28T12:42:21;3.47;;;2.30;;
14143;SDS011;7152;48.348;10.980;2023-07-28T12:45:23;3.10;;;2.50;;
14143;SDS011;7152;48.348;10.980;2023-07-28T12:48:31;3.20;;;2.10;;
14143;SDS011;7152;48.348;10.980;2023-07-28T12:51:04;2.83;;;2.38;;
14143;SDS011;7152;48.348;10.980;2023-07-28T12:57:03;2.67;;;2.47;;
14143;SDS011;7152;48.348;10.980;2023-07-28T13:00:27;3.28;;;2.35;;
14143;SDS011;7152;48.348;10.980;2023-07-28T13:03:47;3.15;;;2.22;;
14143;SDS011;7152;48.348;10.980;2023-07-28T13:06:32;2.17;;;2.00;;
14143;SDS011;7152;48.348;10.980;2023-07-28T13:09:24;2.40;;;2.20;;
14143;SDS011;7152;48.348;10.980;2023-07-28T13:12:08;2.70;;;2.25;;
14143;SDS011;7152;48.348;10.980;2023-07-28T13:15:44;2.58;;;2.38;;
14143;SDS011;7152;48.348;10.980;2023-07-28T13:18:54;2.50;;;2.30;;
14143;SDS011;7152;48.348;10.980;2023-07-28T13:21:31;3.25;;;2.17;;
14143;SDS011;7152;48.348;10.980;2023-07-28T13:24:20;3.22;;;2.58;;
14143;SDS011;7152;48.348;10.980;2023-07-28T13:26:58;2.85;;;2.40;;
14143;SDS011;7152;48.348;10.980;2023-07-28T13:29:39;3.65;;;2.80;;
14143;SDS011;7152;48.348;10.980;2023-07-28T13:32:39;2.70;;;2.50;;
14143;SDS011;7152;48.348;10.980;2023-07-28T13:35:37;3.58;;;2.42;;
14143;SDS011;7152;48.348;10.980;2023-07-28T13:42:16;4.53;;;2.90;;
14143;SDS011;7152;48.348;10.980;2023-07-28T13:45:03;3.20;;;2.73;;
14143;SDS011;7152;48.348;10.980;2023-07-28T13:47:46;3.13;;;2.57;;
14143;SDS011;7152;48.348;10.980;2023-07-28T13:50:32;3.27;;;2.97;;
14143;SDS011;7152;48.348;10.980;2023-07-28T13:53:09;3.20;;;2.90;;
14143;SDS011;7152;48.348;10.980;2023-07-28T13:56:33;3.37;;;2.57;;
14143;SDS011;7152;48.348;10.980;2023-07-28T13:59:11;3.07;;;2.40;;
14143;SDS011;7152;48.348;10.980;2023-07-28T14:01:52;3.00;;;2.80;;
14143;SDS011;7152;48.348;10.980;2023-07-28T14:04:30;2.83;;;2.63;;
14143;SDS011;7152;48.348;10.980;2023-07-28T14:07:30;3.23;;;2.93;;
14143;SDS011;7152;48.348;10.980;2023-07-28T14:10:15;3.37;;;2.63;;
14143;SDS011;7152;48.348;10.980;2023-07-28T14:12:47;3.07;;;2.77;;
14143;SDS011;7152;48.348;10.980;2023-07-28T14:15:54;9.13;;;2.83;;
14143;SDS011;7152;48.348;10.980;2023-07-28T14:18:37;2.20;;;2.00;;
14143;SDS011;7152;48.348;10.980;2023-07-28T14:21:29;2.83;;;2.50;;
14143;SDS011;7152;48.348;10.980;2023-07-28T14:24:30;2.77;;;2.37;;
14143;SDS011;7152;48.348;10.980;2023-07-28T14:27:11;3.10;;;2.80;;
14143;SDS011;7152;48.348;10.980;2023-07-28T14:30:33;2.90;;;2.70;;
14143;SDS011;7152;48.348;10.980;2023-07-28T14:33:49;3.10;;;2.80;;
14143;SDS011;7152;48.348;10.980;2023-07-28T14:36:33;2.97;;;2.37;;
14143;SDS011;7152;48.348;10.980;2023-07-28T14:39:03;2.70;;;2.50;;
14143;SDS011;7152;48.348;10.980;2023-07-28T14:41:29;3.40;;;2.60;;
14143;SDS011;7152;48.348;10.980;2023-07-28T14:43:55;2.97;;;2.20;;
14143;SDS011;7152;48.348;10.980;2023-07-28T14:46:27;2.53;;;2.33;;
14143;SDS011;7152;48.348;10.980;2023-07-28T14:49:04;2.83;;;2.60;;
14143;SDS011;7152;48.348;10.980;2023-07-28T14:51:39;2.80;;;2.60;;
14143;SDS011;7152;48.348;10.980;2023-07-28T14:54:08;2.70;;;2.50;;
14143;SDS011;7152;48.348;10.980;2023-07-28T14:56:35;3.40;;;2.47;;
14143;SDS011;7152;48.348;10.980;2023-07-28T14:59:10;2.70;;;2.50;;
14143;SDS011;7152;48.348;10.980;2023-07-28T15:01:43;3.33;;;2.80;;
14143;SDS011;7152;48.348;10.980;2023-07-28T15:14:18;2.50;;;2.30;;
14143;SDS011;7152;48.348;10.980;2023-07-28T15:17:17;2.55;;;2.35;;
14143;SDS011;7152;48.348;10.980;2023-07-28T15:20:36;3.05;;;2.75;;
14143;SDS011;7152;48.348;10.980;2023-07-28T15:23:08;2.90;;;2.60;;
14143;SDS011;7152;48.348;10.980;2023-07-28T15:25:43;3.70;;;2.83;;
14143;SDS011;7152;48.348;10.980;2023-07-28T15:28:29;2.90;;;2.65;;
14143;SDS011;7152;48.348;10.980;2023-07-28T15:31:28;3.73;;;2.50;;
14143;SDS011;7152;48.348;10.980;2023-07-28T15:34:41;2.97;;;2.67;;
14143;SDS011;7152;48.348;10.980;2023-07-28T15:37:36;3.58;;;2.53;;
14143;SDS011;7152;48.348;10.980;2023-07-28T15:40:48;3.72;;;2.53;;
14143;SDS011;7152;48.348;10.980;2023-07-28T15:47:52;2.78;;;2.50;;
14143;SDS011;7152;48.348;10.980;2023-07-28T15:50:30;2.95;;;2.50;;
14143;SDS011;7152;48.348;10.980;2023-07-28T15:53:46;3.25;;;2.95;;
14143;SDS011;7152;48.348;10.980;2023-07-28T15:56:46;2.87;;;2.40;;
14143;SDS011;7152;48.348;10.980;2023-07-28T16:03:32;2.42;;;2.10;;
14143;SDS011;7152;48.348;10.980;2023-07-28T16:06:27;2.60;;;2.40;;
14143;SDS011;7152;48.348;10.980;2023-07-28T16:09:28;2.73;;;2.40;;
14143;SDS011;7152;48.348;10.980;2023-07-28T16:15:35;2.58;;;2.05;;
14143;SDS011;7152;48.348;10.980;2023-07-28T16:18:33;2.45;;;2.25;;
14143;SDS011;7152;48.348;10.980;2023-07-28T16:21:31;2.58;;;2.38;;
14143;SDS011;7152;48.348;10.980;2023-07-28T16:25:33;3.20;;;2.90;;
14143;SDS011;7152;48.348;10.980;2023-07-28T16:31:16;2.88;;;2.67;;
14143;SDS011;7152;48.348;10.980;2023-07-28T16:33:42;3.57;;;3.27;;
14143;SDS011;7152;48.348;10.980;2023-07-28T16:36:08;4.23;;;3.33;;
14143;SDS011;7152;48.348;10.980;2023-07-28T16:38:34;3.20;;;2.90;;
14143;SDS011;7152;48.348;10.980;2023-07-28T16:41:00;4.07;;;3.67;;
14143;SDS011;7152;48.348;10.980;2023-07-28T16:43:26;3.93;;;3.63;;
14143;SDS011;7152;48.348;10.980;2023-07-28T16:45:52;4.33;;;4.00;;
14143;SDS011;7152;48.348;10.980;2023-07-28T16:48:17;4.00;;;3.70;;
14143;SDS011;7152;48.348;10.980;2023-07-28T16:50:43;3.87;;;3.57;;
14143;SDS011;7152;48.348;10.980;2023-07-28T16:53:09;5.23;;;4.20;;
14143;SDS011;7152;48.348;10.980;2023-07-28T16:55:35;4.27;;;3.70;;
14143;SDS011;7152;48.348;10.980;2023-07-28T16:58:01;4.67;;;4.27;;
14143;SDS011;7152;48.348;10.980;2023-07-28T17:00:26;5.63;;;4.73;;
14143;SDS011;7152;48.348;10.980;2023-07-28T17:02:52;4.30;;;3.93;;
14143;SDS011;7152;48.348;10.980;2023-07-28T17:05:18;4.33;;;3.93;;
14143;SDS011;7152;48.348;10.980;2023-07-28T17:07:44;4.47;;;4.07;;
14143;SDS011;7152;48.348;10.980;2023-07-28T17:10:10;5.00;;;4.47;;
14143;SDS011;7152;48.348;10.980;2023-07-28T17:12:36;6.17;;;4.83;;
14143;SDS011;7152;48.348;10.980;2023-07-28T17:15:02;4.97;;;4.30;;
14143;SDS011;7152;48.348;10.980;2023-07-28T17:17:29;4.83;;;4.43;;
14143;SDS011;7152;48.348;10.980;2023-07-28T17:19:55;6.03;;;4.90;;
14143;SDS011;7152;48.348;10.980;2023-07-28T17:22:23;5.10;;;4.60;;
14143;SDS011;7152;48.348;10.980;2023-07-28T17:24:49;4.97;;;4.30;;
14143;SDS011;7152;48.348;10.980;2023-07-28T17:27:16;5.43;;;4.40;;
14143;SDS011;7152;48.348;10.980;2023-07-28T17:29:42;4.97;;;4.47;;
14143;SDS011;7152;48.348;10.980;2023-07-28T17:32:07;7.73;;;5.40;;
14143;SDS011;7152;48.348;10.980;2023-07-28T17:34:36;6.67;;;5.60;;
14143;SDS011;7152;48.348;10.980;2023-07-28T17:37:02;9.43;;;6.20;;
14143;SDS011;7152;48.348;10.980;2023-07-28T17:39:28;6.60;;;5.43;;
14143;SDS011;7152;48.348;10.980;2023-07-28T17:41:54;6.40;;;5.67;;
14143;SDS011;7152;48.348;10.980;2023-07-28T17:44:20;6.00;;;5.30;;
14143;SDS011;7152;48.348;10.980;2023-07-28T17:46:46;6.73;;;6.10;;
14143;SDS011;7152;48.348;10.980;2023-07-28T17:49:12;7.57;;;5.53;;
14143;SDS011;7152;48.348;10.980;2023-07-28T17:51:38;7.13;;;4.93;;
14143;SDS011;7152;48.348;10.980;2023-07-28T17:54:03;9.07;;;5.40;;
14143;SDS011;7152;48.348;10.980;2023-07-28T17:56:30;5.83;;;5.23;;
14143;SDS011;7152;48.348;10.980;2023-07-28T17:58:55;6.57;;;5.40;;
14143;SDS011;7152;48.348;10.980;2023-07-28T18:01:21;8.53;;;5.50;;
14143;SDS011;7152;48.348;10.980;2023-07-28T18:03:47;8.07;;;5.93;;
14143;SDS011;7152;48.348;10.980;2023-07-28T18:06:16;5.70;;;4.90;;
14143;SDS011;7152;48.348;10.980;2023-07-28T18:08:42;4.63;;;4.23;;
14143;SDS011;7152;48.348;10.980;2023-07-28T18:11:08;5.30;;;4.10;;
14143;SDS011;7152;48.348;10.980;2023-07-28T18:13:34;4.60;;;4.20;;
14143;SDS011;7152;48.348;10.980;2023-07-28T18:16:00;5.93;;;5.17;;
14143;SDS011;7152;48.348;10.980;2023-07-28T18:18:26;5.73;;;4.87;;
14143;SDS011;7152;48.348;10.980;2023-07-28T18:20:51;5.70;;;5.00;;
14143;SDS011;7152;48.348;10.980;2023-07-28T18:23:17;7.63;;;5.43;;
14143;SDS011;7152;48.348;10.980;2023-07-28T18:25:43;6.87;;;6.17;;
14143;SDS011;7152;48.348;10.980;2023-07-28T18:28:09;6.90;;;5.70;;
14143;SDS011;7152;48.348;10.980;2023-07-28T18:30:35;6.20;;;5.47;;
14143;SDS011;7152;48.348;10.980;2023-07-28T18:33:01;6.10;;;5.47;;
14143;SDS011;7152;48.348;10.980;2023-07-28T18:35:27;7.10;;;5.87;;
14143;SDS011;7152;48.348;10.980;2023-07-28T18:37:53;7.07;;;6.37;;
14143;SDS011;7152;48.348;10.980;2023-07-28T18:40:19;7.30;;;5.83;;
14143;SDS011;7152;48.348;10.980;2023-07-28T18:42:45;7.73;;;6.93;;
14143;SDS011;7152;48.348;10.980;2023-07-28T18:45:11;7.20;;;6.00;;
14143;SDS011;7152;48.348;10.980;2023-07-28T18:47:37;7.13;;;6.07;;
14143;SDS011;7152;48.348;10.980;2023-07-28T18:50:03;8.00;;;6.60;;
14143;SDS011;7152;48.348;10.980;2023-07-28T18:52:30;9.10;;;7.10;;
14143;SDS011;7152;48.348;10.980;2023-07-28T18:54:56;7.60;;;6.90;;
14143;SDS011;7152;48.348;10.980;2023-07-28T18:57:21;7.07;;;6.37;;
14143;SDS011;7152;48.348;10.980;2023-07-28T18:59:47;7.43;;;6.67;;
14143;SDS011;7152;48.348;10.980;2023-07-28T19:02:13;7.60;;;6.67;;
14143;SDS011;7152;48.348;10.980;2023-07-28T19:04:39;6.33;;;5.80;;
14143;SDS011;7152;48.348;10.980;2023-07-28T19:07:07;8.27;;;5.97;;
14143;SDS011;7152;48.348;10.980;2023-07-28T19:09:34;6.47;;;5.87;;
14143;SDS011;7152;48.348;10.980;2023-07-28T19:12:01;6.73;;;6.00;;
14143;SDS011;7152;48.348;10.980;2023-07-28T19:14:26;6.60;;;6.00;;
14143;SDS011;7152;48.348;10.980;2023-07-28T19:16:52;6.07;;;5.50;;
14143;SDS011;7152;48.348;10.980;2023-07-28T19:19:18;6.60;;;6.00;;
14143;SDS011;7152;48.348;10.980;2023-07-28T19:21:45;6.13;;;5.53;;
14143;SDS011;7152;48.348;10.980;2023-07-28T19:24:11;6.53;;;5.93;;
14143;SDS011;7152;48.348;10.980;2023-07-28T19:26:37;8.40;;;7.30;;
14143;SDS011;7152;48.348;10.980;2023-07-28T19:29:03;8.23;;;6.77;;
14143;SDS011;7152;48.348;10.980;2023-07-28T19:31:32;8.20;;;7.03;;